Time,TemperatureF,DewpointF,PressureIn,WindDirection,WindDirectionDegrees,WindSpeedMPH,WindSpeedGustMPH,Humidity,HourlyPrecipIn,Conditions,Clouds,dailyrainin,SoftwareType,DateUTC
2013-04-26 00:05:00,46.8,29.6,30.28,WNW,286,0.0,0.0,51,0.00,,,0.00,Wunderground v.1.15,2013-04-26 04:05:00,
2013-04-26 00:10:00,46.6,29.9,30.28,WNW,286,0.0,0.0,52,0.00,,,0.00,Wunderground v.1.15,2013-04-26 04:10:00,
2013-04-26 00:15:00,46.3,30.1,30.28,WNW,286,0.0,0.0,53,0.00,,,0.00,Wunderground v.1.15,2013-04-26 04:15:00,
2013-04-26 00:25:00,45.9,29.7,30.28,WNW,286,0.0,0.0,53,0.00,,,0.00,Wunderground v.1.15,2013-04-26 04:25:00,
2013-04-26 00:35:00,45.3,30.1,30.28,WNW,286,0.0,0.0,55,0.00,,,0.00,Wunderground v.1.15,2013-04-26 04:35:00,
2013-04-26 00:45:00,44.9,29.2,30.29,WNW,286,0.0,0.0,54,0.00,,,0.00,Wunderground v.1.15,2013-04-26 04:45:00,
2013-04-26 00:50:00,44.9,29.7,30.29,WNW,286,0.0,0.0,55,0.00,,,0.00,Wunderground v.1.15,2013-04-26 04:50:00,
2013-04-26 00:55:00,44.9,29.7,30.29,WNW,286,0.0,0.0,55,0.00,,,0.00,Wunderground v.1.15,2013-04-26 04:55:00,
2013-04-26 01:00:00,44.7,29.5,30.29,North,4,0.0,0.0,55,0.00,,,0.00,Wunderground v.1.15,2013-04-26 05:00:00,
2013-04-26 01:05:00,44.6,29.4,30.29,North,4,0.0,0.0,55,0.00,,,0.00,Wunderground v.1.15,2013-04-26 05:05:00,
2013-04-26 01:15:00,44.3,29.6,30.29,North,4,0.0,0.0,56,0.00,,,0.00,Wunderground v.1.15,2013-04-26 05:15:00,
2013-04-26 01:25:00,44.1,29.4,30.30,North,4,0.0,0.0,56,0.00,,,0.00,Wunderground v.1.15,2013-04-26 05:25:00,
2013-04-26 01:30:00,44.2,29.9,30.30,North,4,0.0,0.0,57,0.00,,,0.00,Wunderground v.1.15,2013-04-26 05:30:00,
2013-04-26 01:40:00,44.1,30.3,30.30,North,4,0.0,0.0,58,0.00,,,0.00,Wunderground v.1.15,2013-04-26 05:40:00,
2013-04-26 01:50:00,44.0,29.7,30.31,North,4,0.0,0.0,57,0.00,,,0.00,Wunderground v.1.15,2013-04-26 05:50:00,
2013-04-26 02:00:00,45.5,31.1,30.31,NE,56,1.0,2.0,57,0.00,,,0.00,Wunderground v.1.15,2013-04-26 06:00:00,
2013-04-26 02:05:00,46.0,33.3,30.31,NNE,14,2.0,4.0,61,0.00,,,0.00,Wunderground v.1.15,2013-04-26 06:05:00,
2013-04-26 02:15:00,45.9,34.4,30.32,NNW,345,2.0,5.0,64,0.00,,,0.00,Wunderground v.1.15,2013-04-26 06:15:00,
2013-04-26 02:20:00,45.6,34.5,30.32,North,4,2.0,2.0,65,0.00,,,0.00,Wunderground v.1.15,2013-04-26 06:20:00,
2013-04-26 02:30:00,45.4,34.7,30.32,WNW,287,1.0,1.0,66,0.00,,,0.00,Wunderground v.1.15,2013-04-26 06:30:00,
2013-04-26 02:40:00,45.1,35.2,30.32,NNW,332,1.0,1.0,68,0.00,,,0.00,Wunderground v.1.15,2013-04-26 06:40:00,
2013-04-26 02:50:00,44.9,35.7,30.31,WSW,242,2.0,2.0,70,0.00,,,0.00,Wunderground v.1.15,2013-04-26 06:50:00,
2013-04-26 03:00:00,44.4,35.6,30.31,WSW,258,1.0,1.0,71,0.00,,,0.00,Wunderground v.1.15,2013-04-26 07:00:00,
2013-04-26 03:05:00,44.2,35.4,30.31,WSW,258,0.0,1.0,71,0.00,,,0.00,Wunderground v.1.15,2013-04-26 07:05:00,
2013-04-26 03:15:00,43.5,35.1,30.32,WSW,258,0.0,0.0,72,0.00,,,0.00,Wunderground v.1.15,2013-04-26 07:15:00,
2013-04-26 03:25:00,43.4,36.0,30.32,West,265,1.0,1.0,75,0.00,,,0.00,Wunderground v.1.15,2013-04-26 07:25:00,
2013-04-26 03:35:00,43.4,35.7,30.32,NNW,334,0.0,1.0,74,0.00,,,0.00,Wunderground v.1.15,2013-04-26 07:35:00,
2013-04-26 03:45:00,43.6,35.5,30.32,West,270,0.0,2.0,73,0.00,,,0.00,Wunderground v.1.15,2013-04-26 07:45:00,
2013-04-26 03:55:00,43.7,35.6,30.33,NW,313,0.0,0.0,73,0.00,,,0.00,Wunderground v.1.15,2013-04-26 07:55:00,
2013-04-26 04:05:00,43.1,35.4,30.33,WNW,285,0.0,0.0,74,0.00,,,0.00,Wunderground v.1.15,2013-04-26 08:05:00,
2013-04-26 04:15:00,42.5,34.8,30.33,WNW,284,0.0,0.0,74,0.00,,,0.00,Wunderground v.1.15,2013-04-26 08:15:00,
2013-04-26 04:25:00,42.2,34.5,30.33,NW,322,0.0,0.0,74,0.00,,,0.00,Wunderground v.1.15,2013-04-26 08:25:00,
2013-04-26 04:35:00,42.0,34.3,30.34,NW,310,0.0,0.0,74,0.00,,,0.00,Wunderground v.1.15,2013-04-26 08:35:00,
2013-04-26 04:45:00,41.5,34.2,30.34,NW,310,0.0,0.0,75,0.00,,,0.00,Wunderground v.1.15,2013-04-26 08:45:00,
2013-04-26 04:55:00,41.1,34.1,30.34,NW,310,0.0,0.0,76,0.00,,,0.00,Wunderground v.1.15,2013-04-26 08:55:00,
2013-04-26 05:05:00,40.6,33.6,30.35,NW,310,0.0,0.0,76,0.00,,,0.00,Wunderground v.1.15,2013-04-26 09:05:00,
2013-04-26 05:15:00,40.3,33.7,30.35,NW,310,0.0,0.0,77,0.00,,,0.00,Wunderground v.1.15,2013-04-26 09:15:00,
2013-04-26 05:20:00,40.1,33.5,30.35,NW,310,0.0,0.0,77,0.00,,,0.00,Wunderground v.1.15,2013-04-26 09:20:00,
2013-04-26 05:30:00,39.8,33.5,30.35,NW,310,0.0,0.0,78,0.00,,,0.00,Wunderground v.1.15,2013-04-26 09:30:00,
2013-04-26 05:40:00,39.7,33.7,30.36,NW,310,0.0,0.0,79,0.00,,,0.00,Wunderground v.1.15,2013-04-26 09:40:00,
2013-04-26 05:50:00,39.7,33.4,30.36,NW,310,0.0,0.0,78,0.00,,,0.00,Wunderground v.1.15,2013-04-26 09:50:00,
2013-04-26 06:00:00,39.5,33.5,30.36,NW,310,0.0,0.0,79,0.00,,,0.00,Wunderground v.1.15,2013-04-26 10:00:00,
2013-04-26 06:05:00,39.3,33.3,30.36,NW,310,0.0,0.0,79,0.00,,,0.00,Wunderground v.1.15,2013-04-26 10:05:00,
2013-04-26 06:15:00,39.0,33.0,30.37,NW,310,0.0,0.0,79,0.00,,,0.00,Wunderground v.1.15,2013-04-26 10:15:00,
2013-04-26 06:25:00,38.7,32.7,30.38,NW,310,0.0,0.0,79,0.00,,,0.00,Wunderground v.1.15,2013-04-26 10:25:00,
2013-04-26 06:30:00,38.6,33.0,30.38,NW,310,0.0,0.0,80,0.00,,,0.00,Wunderground v.1.15,2013-04-26 10:30:00,
2013-04-26 06:40:00,38.4,32.8,30.38,NW,310,0.0,0.0,80,0.00,,,0.00,Wunderground v.1.15,2013-04-26 10:40:00,
2013-04-26 06:50:00,38.0,32.7,30.39,NW,310,0.0,0.0,81,0.00,,,0.00,Wunderground v.1.15,2013-04-26 10:50:00,
2013-04-26 06:55:00,37.9,32.9,30.39,NW,310,0.0,0.0,82,0.00,,,0.00,Wunderground v.1.15,2013-04-26 10:55:00,
2013-04-26 07:05:00,37.9,33.2,30.39,NW,310,0.0,0.0,83,0.00,,,0.00,Wunderground v.1.15,2013-04-26 11:05:00,
2013-04-26 07:15:00,38.0,33.6,30.40,NW,310,0.0,0.0,84,0.00,,,0.00,Wunderground v.1.15,2013-04-26 11:15:00,
2013-04-26 07:25:00,38.4,34.3,30.40,ENE,57,0.0,0.0,85,0.00,,,0.00,Wunderground v.1.15,2013-04-26 11:25:00,
2013-04-26 07:35:00,38.8,34.4,30.41,ENE,57,0.0,0.0,84,0.00,,,0.00,Wunderground v.1.15,2013-04-26 11:35:00,
2013-04-26 07:45:00,39.0,34.3,30.41,ENE,57,0.0,0.0,83,0.00,,,0.00,Wunderground v.1.15,2013-04-26 11:45:00,
2013-04-26 07:55:00,39.4,34.7,30.41,ENE,57,0.0,0.0,83,0.00,,,0.00,Wunderground v.1.15,2013-04-26 11:55:00,
2013-04-26 08:05:00,40.2,35.4,30.42,ENE,57,0.0,0.0,83,0.00,,,0.00,Wunderground v.1.15,2013-04-26 12:05:00,
2013-04-26 08:15:00,41.3,36.2,30.42,ENE,58,0.0,0.0,82,0.00,,,0.00,Wunderground v.1.15,2013-04-26 12:15:00,
2013-04-26 08:25:00,42.2,36.8,30.42,ENE,62,0.0,1.0,81,0.00,,,0.00,Wunderground v.1.15,2013-04-26 12:25:00,
2013-04-26 08:35:00,42.9,36.2,30.42,East,96,1.0,1.0,77,0.00,,,0.00,Wunderground v.1.15,2013-04-26 12:35:00,
2013-04-26 08:40:00,43.4,36.3,30.42,East,98,1.0,1.0,76,0.00,,,0.00,Wunderground v.1.15,2013-04-26 12:40:00,
2013-04-26 08:50:00,44.1,36.7,30.42,East,100,1.0,1.0,75,0.00,,,0.00,Wunderground v.1.15,2013-04-26 12:50:00,
2013-04-26 09:00:00,45.2,37.1,30.43,East,99,1.0,1.0,73,0.00,,,0.00,Wunderground v.1.15,2013-04-26 13:00:00,
2013-04-26 09:05:00,45.6,37.1,30.42,SE,135,1.0,2.0,72,0.00,,,0.00,Wunderground v.1.15,2013-04-26 13:05:00,
2013-04-26 09:15:00,46.8,37.2,30.43,SE,145,2.0,2.0,69,0.00,,,0.00,Wunderground v.1.15,2013-04-26 13:15:00,
2013-04-26 09:25:00,48.0,35.6,30.43,ESE,118,2.0,3.0,62,0.00,,,0.00,Wunderground v.1.15,2013-04-26 13:25:00,
2013-04-26 09:30:00,48.5,35.7,30.43,SE,142,3.0,3.0,61,0.00,,,0.00,Wunderground v.1.15,2013-04-26 13:30:00,
2013-04-26 09:40:00,49.2,35.9,30.43,SE,137,2.0,2.0,60,0.00,,,0.00,Wunderground v.1.15,2013-04-26 13:40:00,
2013-04-26 09:50:00,50.0,34.9,30.43,NE,50,2.0,3.0,56,0.00,,,0.00,Wunderground v.1.15,2013-04-26 13:50:00,
2013-04-26 10:00:00,50.5,34.9,30.43,SE,126,2.0,3.0,55,0.00,,,0.00,Wunderground v.1.15,2013-04-26 14:00:00,
2013-04-26 10:05:00,50.8,36.5,30.42,South,183,3.0,3.0,58,0.00,,,0.00,Wunderground v.1.15,2013-04-26 14:05:00,
2013-04-26 10:15:00,51.7,36.0,30.42,NE,47,2.0,3.0,55,0.00,,,0.00,Wunderground v.1.15,2013-04-26 14:15:00,
2013-04-26 10:20:00,52.3,34.2,30.42,ESE,111,2.0,2.0,50,0.00,,,0.00,Wunderground v.1.15,2013-04-26 14:20:00,
2013-04-26 10:30:00,52.9,34.8,30.42,SSE,162,2.0,2.0,50,0.00,,,0.00,Wunderground v.1.15,2013-04-26 14:30:00,
2013-04-26 10:40:00,53.7,37.4,30.42,ESE,105,2.0,3.0,54,0.00,,,0.00,Wunderground v.1.15,2013-04-26 14:40:00,
2013-04-26 10:45:00,54.5,36.7,30.42,SE,133,3.0,3.0,51,0.00,,,0.00,Wunderground v.1.15,2013-04-26 14:45:00,
2013-04-26 10:55:00,55.4,36.5,30.42,SSE,168,2.0,3.0,49,0.00,,,0.00,Wunderground v.1.15,2013-04-26 14:55:00,
2013-04-26 11:05:00,56.6,37.6,30.42,SE,129,3.0,4.0,49,0.00,,,0.00,Wunderground v.1.15,2013-04-26 15:05:00,
2013-04-26 11:15:00,56.9,37.9,30.42,ESE,122,2.0,4.0,49,0.00,,,0.00,Wunderground v.1.15,2013-04-26 15:15:00,
2013-04-26 11:25:00,56.4,36.4,30.41,ESE,122,3.0,3.0,47,0.00,,,0.00,Wunderground v.1.15,2013-04-26 15:25:00,
2013-04-26 11:35:00,58.6,37.3,30.40,ENE,65,3.0,5.0,45,0.00,,,0.00,Wunderground v.1.15,2013-04-26 15:35:00,
2013-04-26 11:45:00,60.4,36.6,30.39,ENE,73,4.0,8.0,41,0.00,,,0.00,Wunderground v.1.15,2013-04-26 15:45:00,
2013-04-26 11:55:00,61.8,36.6,30.39,East,83,4.0,5.0,39,0.00,,,0.00,Wunderground v.1.15,2013-04-26 15:55:00,
2013-04-26 12:00:00,62.4,37.1,30.39,SE,143,3.0,3.0,39,0.00,,,0.00,Wunderground v.1.15,2013-04-26 16:00:00,
2013-04-26 12:05:00,62.6,37.3,30.38,East,93,3.0,5.0,39,0.00,,,0.00,Wunderground v.1.15,2013-04-26 16:05:00,
2013-04-26 12:15:00,61.9,37.9,30.38,SSW,211,2.0,4.0,41,0.00,,,0.00,Wunderground v.1.15,2013-04-26 16:15:00,
2013-04-26 12:25:00,60.8,35.7,30.38,SE,132,4.0,7.0,39,0.00,,,0.00,Wunderground v.1.15,2013-04-26 16:25:00,
2013-04-26 12:30:00,61.8,36.6,30.38,South,171,3.0,3.0,39,0.00,,,0.00,Wunderground v.1.15,2013-04-26 16:30:00,
2013-04-26 12:40:00,63.3,35.2,30.37,SE,127,4.0,4.0,35,0.00,,,0.00,Wunderground v.1.15,2013-04-26 16:40:00,
2013-04-26 12:50:00,63.7,34.8,30.37,SSE,161,5.0,5.0,34,0.00,,,0.00,Wunderground v.1.15,2013-04-26 16:50:00,
2013-04-26 13:00:00,63.6,36.1,30.37,ESE,123,4.0,5.0,36,0.00,,,0.00,Wunderground v.1.15,2013-04-26 17:00:00,
2013-04-26 13:05:00,64.4,35.4,30.37,SE,137,4.0,5.0,34,0.00,,,0.00,Wunderground v.1.15,2013-04-26 17:05:00,
2013-04-26 13:15:00,65.2,35.4,30.37,SE,137,3.0,4.0,33,0.00,,,0.00,Wunderground v.1.15,2013-04-26 17:15:00,
2013-04-26 13:20:00,64.4,36.8,30.37,SW,230,3.0,3.0,36,0.00,,,0.00,Wunderground v.1.15,2013-04-26 17:20:00,
2013-04-26 13:30:00,64.6,35.6,30.36,SSW,200,3.0,3.0,34,0.00,,,0.00,Wunderground v.1.15,2013-04-26 17:30:00,
2013-04-26 13:40:00,65.9,36.0,30.35,ENE,68,3.0,7.0,33,0.00,,,0.00,Wunderground v.1.15,2013-04-26 17:40:00,
2013-04-26 13:45:00,66.7,35.9,30.35,ESE,102,3.0,7.0,32,0.00,,,0.00,Wunderground v.1.15,2013-04-26 17:45:00,
2013-04-26 13:55:00,67.6,35.9,30.35,SE,135,3.0,4.0,31,0.00,,,0.00,Wunderground v.1.15,2013-04-26 17:55:00,
2013-04-26 14:05:00,66.0,33.7,30.34,South,189,4.0,5.0,30,0.00,,,0.00,Wunderground v.1.15,2013-04-26 18:05:00,
2013-04-26 14:15:00,66.4,36.4,30.34,East,93,3.0,7.0,33,0.00,,,0.00,Wunderground v.1.15,2013-04-26 18:15:00,
2013-04-26 14:20:00,67.1,35.4,30.34,SW,223,2.0,2.0,31,0.00,,,0.00,Wunderground v.1.15,2013-04-26 18:20:00,
2013-04-26 14:30:00,69.2,37.3,30.35,ESE,105,3.0,3.0,31,0.00,,,0.00,Wunderground v.1.15,2013-04-26 18:30:00,
2013-04-26 14:40:00,70.5,37.6,30.34,NE,35,3.0,3.0,30,0.00,,,0.00,Wunderground v.1.15,2013-04-26 18:40:00,
2013-04-26 14:50:00,68.5,37.5,30.34,SSW,200,2.0,4.0,32,0.00,,,0.00,Wunderground v.1.15,2013-04-26 18:50:00,
2013-04-26 15:00:00,67.7,37.5,30.34,ESE,123,3.0,5.0,33,0.00,,,0.00,Wunderground v.1.15,2013-04-26 19:00:00,
2013-04-26 15:05:00,68.2,37.2,30.33,ESE,103,2.0,5.0,32,0.00,,,0.00,Wunderground v.1.15,2013-04-26 19:05:00,
2013-04-26 15:15:00,68.8,37.7,30.33,East,101,1.0,3.0,32,0.00,,,0.00,Wunderground v.1.15,2013-04-26 19:15:00,
2013-04-26 15:25:00,70.9,37.9,30.33,SSE,157,4.0,4.0,30,0.00,,,0.00,Wunderground v.1.15,2013-04-26 19:25:00,
2013-04-26 15:35:00,69.8,36.9,30.32,ESE,114,2.0,5.0,30,0.00,,,0.00,Wunderground v.1.15,2013-04-26 19:35:00,
2013-04-26 15:45:00,70.1,38.0,30.32,SSE,160,3.0,3.0,31,0.00,,,0.00,Wunderground v.1.15,2013-04-26 19:45:00,
2013-04-26 15:55:00,70.6,36.8,30.32,SSE,155,2.0,4.0,29,0.00,,,0.00,Wunderground v.1.15,2013-04-26 19:55:00,
2013-04-26 16:05:00,70.5,38.4,30.32,ESE,113,2.0,2.0,31,0.00,,,0.00,Wunderground v.1.15,2013-04-26 20:05:00,
2013-04-26 16:15:00,70.8,37.0,30.31,East,97,3.0,3.0,29,0.00,,,0.00,Wunderground v.1.15,2013-04-26 20:15:00,
2013-04-26 16:25:00,71.5,37.6,30.30,SE,132,3.0,5.0,29,0.00,,,0.00,Wunderground v.1.15,2013-04-26 20:25:00,
2013-04-26 16:35:00,71.0,37.1,30.30,East,91,2.0,3.0,29,0.00,,,0.00,Wunderground v.1.15,2013-04-26 20:35:00,
2013-04-26 16:45:00,71.9,37.0,30.29,East,83,3.0,3.0,28,0.00,,,0.00,Wunderground v.1.15,2013-04-26 20:45:00,
2013-04-26 16:55:00,71.1,37.2,30.29,NE,34,3.0,3.0,29,0.00,,,0.00,Wunderground v.1.15,2013-04-26 20:55:00,
2013-04-26 17:05:00,70.5,36.7,30.29,East,99,1.0,2.0,29,0.00,,,0.00,Wunderground v.1.15,2013-04-26 21:05:00,
2013-04-26 17:15:00,71.3,35.6,30.28,NE,54,1.0,2.0,27,0.00,,,0.00,Wunderground v.1.15,2013-04-26 21:15:00,
2013-04-26 17:25:00,71.2,35.5,30.28,ENE,58,2.0,4.0,27,0.00,,,0.00,Wunderground v.1.15,2013-04-26 21:25:00,
2013-04-26 17:35:00,70.5,35.8,30.28,NE,43,1.0,2.0,28,0.00,,,0.00,Wunderground v.1.15,2013-04-26 21:35:00,
2013-04-26 17:40:00,70.1,35.5,30.28,ESE,106,1.0,1.0,28,0.00,,,0.00,Wunderground v.1.15,2013-04-26 21:40:00,
2013-04-26 17:50:00,70.0,35.4,30.29,ESE,108,1.0,4.0,28,0.00,,,0.00,Wunderground v.1.15,2013-04-26 21:50:00,
2013-04-26 18:00:00,70.1,37.2,30.29,East,101,2.0,2.0,30,0.00,,,0.00,Wunderground v.1.15,2013-04-26 22:00:00,
2013-04-26 18:05:00,69.6,35.9,30.29,ESE,102,2.0,2.0,29,0.00,,,0.00,Wunderground v.1.15,2013-04-26 22:05:00,
2013-04-26 18:15:00,69.1,36.3,30.29,ESE,106,2.0,2.0,30,0.00,,,0.00,Wunderground v.1.15,2013-04-26 22:15:00,
2013-04-26 18:25:00,68.2,36.4,30.29,ESE,104,1.0,1.0,31,0.00,,,0.00,Wunderground v.1.15,2013-04-26 22:25:00,
2013-04-26 18:35:00,66.5,35.7,30.29,NE,37,1.0,1.0,32,0.00,,,0.00,Wunderground v.1.15,2013-04-26 22:35:00,
2013-04-26 18:45:00,65.4,35.5,30.29,NE,38,0.0,1.0,33,0.00,,,0.00,Wunderground v.1.15,2013-04-26 22:45:00,
2013-04-26 18:55:00,64.3,34.6,30.29,NE,38,0.0,0.0,33,0.00,,,0.00,Wunderground v.1.15,2013-04-26 22:55:00,
2013-04-26 19:05:00,63.1,34.3,30.30,NE,41,0.0,0.0,34,0.00,,,0.00,Wunderground v.1.15,2013-04-26 23:05:00,
2013-04-26 19:15:00,62.2,33.5,30.30,NE,48,0.0,0.0,34,0.00,,,0.00,Wunderground v.1.15,2013-04-26 23:15:00,
2013-04-26 19:25:00,61.4,33.5,30.31,NE,48,0.0,0.0,35,0.00,,,0.00,Wunderground v.1.15,2013-04-26 23:25:00,
2013-04-26 19:35:00,60.8,33.0,30.31,NE,48,0.0,1.0,35,0.00,,,0.00,Wunderground v.1.15,2013-04-26 23:35:00,
2013-04-26 19:45:00,59.9,32.9,30.31,NE,48,0.0,1.0,36,0.00,,,0.00,Wunderground v.1.15,2013-04-26 23:45:00,
2013-04-26 20:10:00,58.1,31.3,30.32,NE,48,1.0,1.0,36,0.00,,,0.00,Wunderground v.1.15,2013-04-27 00:10:00,
2013-04-26 20:20:00,57.6,30.8,30.32,NE,48,1.0,1.0,36,0.00,,,0.00,Wunderground v.1.15,2013-04-27 00:20:00,
2013-04-26 20:30:00,57.1,30.4,30.33,NNW,345,1.0,1.0,36,0.00,,,0.00,Wunderground v.1.15,2013-04-27 00:30:00,
2013-04-26 20:40:00,56.8,30.8,30.33,NNW,344,1.0,1.0,37,0.00,,,0.00,Wunderground v.1.15,2013-04-27 00:40:00,
2013-04-26 20:50:00,56.4,31.7,30.33,NNW,344,0.0,0.0,39,0.00,,,0.00,Wunderground v.1.15,2013-04-27 00:50:00,
2013-04-26 21:00:00,56.0,30.7,30.33,NNW,344,0.0,1.0,38,0.00,,,0.00,Wunderground v.1.15,2013-04-27 01:00:00,
2013-04-26 21:05:00,55.8,30.5,30.33,NNW,344,1.0,1.0,38,0.00,,,0.00,Wunderground v.1.15,2013-04-27 01:05:00,
2013-04-26 21:15:00,55.7,31.1,30.34,NNW,344,1.0,1.0,39,0.00,,,0.00,Wunderground v.1.15,2013-04-27 01:15:00,
2013-04-26 21:25:00,55.3,31.4,30.34,NNW,344,0.0,0.0,40,0.00,,,0.00,Wunderground v.1.15,2013-04-27 01:25:00,
2013-04-26 21:35:00,54.9,32.2,30.34,NNW,344,0.0,0.0,42,0.00,,,0.00,Wunderground v.1.15,2013-04-27 01:35:00,
2013-04-26 21:45:00,54.4,33.5,30.35,NNW,344,0.0,0.0,45,0.00,,,0.00,Wunderground v.1.15,2013-04-27 01:45:00,
2013-04-26 21:55:00,53.3,33.0,30.36,NE,39,1.0,1.0,46,0.00,,,0.00,Wunderground v.1.15,2013-04-27 01:55:00,
2013-04-26 22:05:00,52.3,33.7,30.36,WNW,291,2.0,4.0,49,0.00,,,0.00,Wunderground v.1.15,2013-04-27 02:05:00,
2013-04-26 22:15:00,52.3,33.2,30.36,WNW,283,2.0,3.0,48,0.00,,,0.00,Wunderground v.1.15,2013-04-27 02:15:00,
2013-04-26 22:25:00,52.8,33.1,30.36,NW,316,2.0,3.0,47,0.00,,,0.00,Wunderground v.1.15,2013-04-27 02:25:00,
2013-04-26 22:35:00,52.6,32.4,30.35,NW,316,0.0,1.0,46,0.00,,,0.00,Wunderground v.1.15,2013-04-27 02:35:00,
2013-04-26 22:40:00,52.4,32.7,30.35,NW,316,0.0,0.0,47,0.00,,,0.00,Wunderground v.1.15,2013-04-27 02:40:00,
2013-04-26 22:45:00,52.3,33.2,30.35,NW,316,0.0,0.0,48,0.00,,,0.00,Wunderground v.1.15,2013-04-27 02:45:00,
2013-04-26 22:50:00,52.1,33.5,30.35,NW,318,0.0,0.0,49,0.00,,,0.00,Wunderground v.1.15,2013-04-27 02:50:00,
2013-04-26 23:00:00,51.6,33.6,30.35,NW,318,0.0,0.0,50,0.00,,,0.00,Wunderground v.1.15,2013-04-27 03:00:00,
2013-04-26 23:05:00,51.2,33.7,30.35,East,89,0.0,0.0,51,0.00,,,0.00,Wunderground v.1.15,2013-04-27 03:05:00,
2013-04-26 23:15:00,50.4,32.9,30.35,East,89,0.0,0.0,51,0.00,,,0.00,Wunderground v.1.15,2013-04-27 03:15:00,
2013-04-26 23:20:00,50.1,32.7,30.35,East,89,0.0,0.0,51,0.00,,,0.00,Wunderground v.1.15,2013-04-27 03:20:00,
2013-04-26 23:30:00,49.8,32.9,30.35,East,89,0.0,0.0,52,0.00,,,0.00,Wunderground v.1.15,2013-04-27 03:30:00,
2013-04-26 23:40:00,49.4,33.4,30.35,East,89,0.0,0.0,54,0.00,,,0.00,Wunderground v.1.15,2013-04-27 03:40:00,
2013-04-26 23:45:00,49.1,33.2,30.35,East,89,0.0,0.0,54,0.00,,,0.00,Wunderground v.1.15,2013-04-27 03:45:00,
2013-04-26 23:55:00,48.5,33.9,30.35,East,89,0.0,0.0,57,0.00,,,0.00,Wunderground v.1.15,2013-04-27 03:55:00,